Time;durP1;ratioP1;P1;durP2;ratioP2;P2;SDS_P1;SDS_P2;PMS_P1;PMS_P2;Temp;Humidity;BMP_temperature;BMP_pressure;BME280_temperature;BME280_humidity;BME280_pressure;Samples;Min_cycle;Max_cycle;Signal;HPM_P1;HPM_P2
2023/02/08 00:02:21;;;;;;;;;;;17.50;47.50;;;;;;10085525;28;1907;-78
2023/02/08 00:07:16;;;;;;;;;;;17.50;47.50;;;;;;10085109;28;867;-78
2023/02/08 00:12:11;;;;;;;;;;;17.50;47.50;;;;;;10084027;28;1042;-78
2023/02/08 00:17:07;;;;;;;;;;;17.50;47.40;;;;;;10084123;28;912;-78
2023/02/08 00:22:02;;;;;;;;;;;17.50;47.40;;;;;;10083255;28;1957;-82
2023/02/08 00:26:57;;;;;;;;;;;17.50;47.40;;;;;;10083849;28;754;-82
2023/02/08 00:31:53;;;;;;;;;;;17.50;47.20;;;;;;10083692;28;774;-82
2023/02/08 00:36:48;;;;;;;;;;;17.50;47.30;;;;;;10083491;28;877;-82
2023/02/08 00:41:44;;;;;;;;;;;17.50;47.30;;;;;;10083299;28;1911;-82
2023/02/08 00:46:39;;;;;;;;;;;17.40;47.20;;;;;;10083832;28;810;-82
2023/02/08 00:51:34;;;;;;;;;;;17.40;47.40;;;;;;10083103;28;837;-82
2023/02/08 00:56:30;;;;;;;;;;;17.40;47.30;;;;;;10097617;28;723;-82
2023/02/08 01:01:25;;;;;;;;;;;17.40;47.20;;;;;;10082620;28;1894;-82
2023/02/08 01:06:21;;;;;;;;;;;17.40;47.10;;;;;;10083173;28;757;-82
2023/02/08 01:11:17;;;;;;;;;;;17.40;47.20;;;;;;10082472;28;782;-82
2023/02/08 01:16:12;;;;;;;;;;;17.50;47.20;;;;;;10082352;28;890;-82
2023/02/08 01:21:08;;;;;;;;;;;17.40;47.10;;;;;;10082064;28;1879;-82
2023/02/08 01:26:03;;;;;;;;;;;17.40;47.10;;;;;;10082644;28;859;-82
2023/02/08 01:30:58;;;;;;;;;;;17.40;47.00;;;;;;10081210;28;845;-82
2023/02/08 01:35:54;;;;;;;;;;;17.40;47.00;;;;;;10082251;28;799;-82
2023/02/08 01:40:49;;;;;;;;;;;17.40;47.00;;;;;;10082019;28;1109;-82
2023/02/08 01:45:45;;;;;;;;;;;17.50;46.90;;;;;;10081409;28;1915;-82
2023/02/08 01:50:40;;;;;;;;;;;17.50;46.90;;;;;;10081991;28;860;-82
2023/02/08 01:55:36;;;;;;;;;;;17.40;47.10;;;;;;10081768;28;782;-82
2023/02/08 02:00:31;;;;;;;;;;;17.40;46.90;;;;;;10081034;28;798;-82
2023/02/08 02:05:26;;;;;;;;;;;17.40;46.90;;;;;;10080755;28;1960;-82
2023/02/08 02:10:22;;;;;;;;;;;17.40;46.90;;;;;;10080620;28;876;-82
2023/02/08 02:15:17;;;;;;;;;;;17.40;46.90;;;;;;10081089;28;797;-82
2023/02/08 02:20:12;;;;;;;;;;;17.40;46.80;;;;;;10081039;28;775;-82
2023/02/08 02:25:08;;;;;;;;;;;17.40;46.90;;;;;;10080266;28;1972;-82
2023/02/08 02:30:03;;;;;;;;;;;17.40;47.10;;;;;;10080848;28;833;-82
2023/02/08 02:34:58;;;;;;;;;;;17.40;47.00;;;;;;10080651;28;999;-82
2023/02/08 02:39:54;;;;;;;;;;;17.30;46.90;;;;;;10079928;28;781;-82
2023/02/08 02:44:49;;;;;;;;;;;17.30;46.90;;;;;;10079949;28;1914;-82
2023/02/08 02:49:45;;;;;;;;;;;17.30;46.90;;;;;;10080305;28;959;-82
2023/02/08 02:54:40;;;;;;;;;;;17.30;46.80;;;;;;10079548;28;849;-82
2023/02/08 02:59:35;;;;;;;;;;;17.30;46.80;;;;;;10080043;28;790;-82
2023/02/08 03:04:31;;;;;;;;;;;17.30;46.80;;;;;;10079483;28;1906;-82
2023/02/08 03:09:26;;;;;;;;;;;17.30;46.80;;;;;;10079179;28;849;-82
2023/02/08 03:14:21;;;;;;;;;;;17.30;46.70;;;;;;10079696;28;946;-82
2023/02/08 03:19:17;;;;;;;;;;;17.30;46.70;;;;;;10082050;28;838;-82
2023/02/08 03:24:12;;;;;;;;;;;17.30;46.70;;;;;;10085789;28;1969;-82
2023/02/08 03:29:07;;;;;;;;;;;17.30;46.80;;;;;;10085028;28;1000;-82
2023/02/08 03:34:03;;;;;;;;;;;17.30;46.80;;;;;;10085526;28;797;-82
2023/02/08 03:38:58;;;;;;;;;;;17.30;46.80;;;;;;10085908;28;898;-82
2023/02/08 03:43:54;;;;;;;;;;;17.20;46.80;;;;;;10086118;28;1981;-83
2023/02/08 03:48:49;;;;;;;;;;;17.30;46.80;;;;;;10085061;28;941;-83
2023/02/08 03:53:44;;;;;;;;;;;17.30;46.70;;;;;;10084919;28;810;-82
2023/02/08 03:58:40;;;;;;;;;;;17.20;46.80;;;;;;10085312;28;957;-82
2023/02/08 04:03:35;;;;;;;;;;;17.30;46.70;;;;;;10084599;28;1964;-82
2023/02/08 04:08:30;;;;;;;;;;;17.20;46.70;;;;;;10085230;28;859;-82
2023/02/08 04:13:26;;;;;;;;;;;17.20;46.60;;;;;;10084344;28;765;-82
2023/02/08 04:18:21;;;;;;;;;;;17.20;46.60;;;;;;10084725;28;1009;-82
2023/02/08 04:23:16;;;;;;;;;;;17.20;46.60;;;;;;10083854;28;1962;-82
2023/02/08 04:28:12;;;;;;;;;;;17.30;46.60;;;;;;10085043;28;822;-82
2023/02/08 04:33:07;;;;;;;;;;;17.30;46.70;;;;;;10084263;28;767;-82
2023/02/08 04:38:02;;;;;;;;;;;17.20;46.60;;;;;;10083491;28;797;-82
2023/02/08 04:42:58;;;;;;;;;;;17.20;46.50;;;;;;10082945;28;1918;-82
2023/02/08 04:47:53;;;;;;;;;;;17.30;46.50;;;;;;10083818;28;948;-82
2023/02/08 04:52:49;;;;;;;;;;;17.20;46.50;;;;;;10083056;28;888;-82
2023/02/08 04:57:44;;;;;;;;;;;17.20;46.60;;;;;;10083488;28;837;-82
2023/02/08 05:02:39;;;;;;;;;;;17.20;46.50;;;;;;10082652;28;1966;-82
2023/02/08 05:07:35;;;;;;;;;;;17.20;46.50;;;;;;10082629;28;972;-82
2023/02/08 05:12:30;;;;;;;;;;;17.30;46.50;;;;;;10082515;28;908;-82
2023/02/08 05:17:25;;;;;;;;;;;17.20;46.40;;;;;;10082946;28;814;-82
2023/02/08 05:22:21;;;;;;;;;;;17.20;46.40;;;;;;10083483;28;1906;-82
2023/02/08 05:27:16;;;;;;;;;;;17.20;46.40;;;;;;10082124;28;759;-82
2023/02/08 05:32:12;;;;;;;;;;;17.20;46.40;;;;;;10081857;28;950;-82
2023/02/08 05:37:07;;;;;;;;;;;17.20;46.30;;;;;;10082301;28;769;-82
2023/02/08 05:42:03;;;;;;;;;;;17.20;46.40;;;;;;10080636;28;1910;-82
2023/02/08 05:46:58;;;;;;;;;;;17.20;46.40;;;;;;10081492;28;787;-82
2023/02/08 05:51:54;;;;;;;;;;;17.20;46.20;;;;;;10081351;28;936;-82
2023/02/08 05:56:49;;;;;;;;;;;17.20;46.20;;;;;;10081210;28;818;-82
2023/02/08 06:01:44;;;;;;;;;;;17.20;46.90;;;;;;10080951;28;1949;-82
2023/02/08 06:06:40;;;;;;;;;;;17.20;46.20;;;;;;10081574;28;969;-81
2023/02/08 06:11:35;;;;;;;;;;;17.20;46.30;;;;;;10080433;28;1234;-82
2023/02/08 06:16:30;;;;;;;;;;;17.20;46.40;;;;;;10080641;28;826;-81
2023/02/08 06:21:27;;;;;;;;;;;17.20;46.40;;;;;;10079830;28;1906;-83
2023/02/08 06:26:22;;;;;;;;;;;17.20;46.20;;;;;;10080923;28;887;-82
2023/02/08 06:31:17;;;;;;;;;;;17.20;46.30;;;;;;10080168;28;772;-81
2023/02/08 06:36:13;;;;;;;;;;;17.20;46.20;;;;;;10079443;28;1003;-81
2023/02/08 06:41:08;;;;;;;;;;;17.20;46.30;;;;;;10079843;28;1226;-78
2023/02/08 06:46:07;;;;;;;;;;;17.20;46.30;;;;;;10079715;28;1907;-80
2023/02/08 06:51:02;;;;;;;;;;;17.10;46.20;;;;;;10080182;28;802;-76
2023/02/08 06:55:57;;;;;;;;;;;17.10;46.10;;;;;;10079227;28;845;-77
2023/02/08 07:00:53;;;;;;;;;;;17.10;46.20;;;;;;10078893;28;952;-77
2023/02/08 07:05:48;;;;;;;;;;;17.10;46.10;;;;;;10078675;28;1899;-76
2023/02/08 07:10:44;;;;;;;;;;;17.10;46.20;;;;;;10079203;28;849;-80
2023/02/08 07:15:39;;;;;;;;;;;17.10;46.20;;;;;;10079332;28;866;-77
2023/02/08 07:20:34;;;;;;;;;;;17.10;46.20;;;;;;10079603;28;860;-77
2023/02/08 07:25:30;;;;;;;;;;;17.00;46.20;;;;;;10078801;28;1958;-76
2023/02/08 07:30:25;;;;;;;;;;;17.00;46.20;;;;;;10078806;28;888;-77
2023/02/08 07:35:20;;;;;;;;;;;17.00;46.30;;;;;;10078771;28;810;-77
2023/02/08 07:40:16;;;;;;;;;;;17.00;46.20;;;;;;10079014;28;1074;-77
2023/02/08 07:45:11;;;;;;;;;;;17.00;46.30;;;;;;10078157;28;2039;-76
2023/02/08 07:50:07;;;;;;;;;;;17.00;46.20;;;;;;10078315;28;830;-79
2023/02/08 07:55:02;;;;;;;;;;;17.00;46.10;;;;;;10078444;28;862;-75
2023/02/08 07:59:57;;;;;;;;;;;17.00;46.20;;;;;;10078114;28;866;-76
2023/02/08 08:04:53;;;;;;;;;;;17.10;46.10;;;;;;10077862;28;1910;-77
2023/02/08 08:09:48;;;;;;;;;;;17.20;46.10;;;;;;10084331;28;909;-78
2023/02/08 08:14:44;;;;;;;;;;;17.40;46.50;;;;;;10084304;28;1018;-76
2023/02/08 08:19:39;;;;;;;;;;;17.50;46.40;;;;;;10084172;28;767;-75
2023/02/08 08:24:34;;;;;;;;;;;17.50;46.30;;;;;;10083948;28;1903;-75
2023/02/08 08:29:30;;;;;;;;;;;17.50;46.40;;;;;;10084440;28;844;-75
2023/02/08 08:34:28;;;;;;;;;;;17.50;46.30;;;;;;10083801;28;1644;-75
2023/02/08 08:39:24;;;;;;;;;;;17.50;46.40;;;;;;10083484;28;886;-75
2023/02/08 08:44:19;;;;;;;;;;;17.50;46.30;;;;;;10083735;28;1919;-74
2023/02/08 08:49:14;;;;;;;;;;;17.50;46.30;;;;;;10083986;28;868;-75
2023/02/08 08:54:10;;;;;;;;;;;17.50;46.30;;;;;;10083698;28;794;-75
2023/02/08 08:59:05;;;;;;;;;;;17.50;46.70;;;;;;10082973;28;881;-75
2023/02/08 09:04:01;;;;;;;;;;;17.50;47.00;;;;;;10082147;28;1966;-74
2023/02/08 09:08:56;;;;;;;;;;;17.50;47.00;;;;;;10082650;28;844;-70
2023/02/08 09:13:54;;;;;;;;;;;17.50;47.30;;;;;;10083667;28;1009;-70
2023/02/08 09:18:49;;;;;;;;;;;17.50;47.30;;;;;;10082689;28;824;-76
2023/02/08 09:23:48;;;;;;;;;;;17.40;47.10;;;;;;10082734;28;1898;-72
2023/02/08 09:28:43;;;;;;;;;;;17.40;47.10;;;;;;10082648;28;902;-81
2023/02/08 09:33:39;;;;;;;;;;;17.40;47.00;;;;;;10083118;28;884;-81
2023/02/08 09:38:34;;;;;;;;;;;17.20;47.40;;;;;;10082346;28;916;-81
2023/02/08 09:43:30;;;;;;;;;;;17.10;47.60;;;;;;10082093;28;1902;-71
2023/02/08 09:48:25;;;;;;;;;;;17.00;47.50;;;;;;10082073;28;875;-72
2023/02/08 09:53:20;;;;;;;;;;;17.20;47.00;;;;;;10081649;28;976;-71
2023/02/08 09:58:16;;;;;;;;;;;17.40;47.20;;;;;;10081230;28;822;-72
2023/02/08 10:03:11;;;;;;;;;;;17.40;47.00;;;;;;10080993;28;1902;-74
2023/02/08 10:08:07;;;;;;;;;;;17.40;46.90;;;;;;10081353;28;981;-73
2023/02/08 10:13:02;;;;;;;;;;;17.40;46.90;;;;;;10080774;28;897;-73
2023/02/08 10:17:57;;;;;;;;;;;17.50;46.70;;;;;;10080604;28;813;-74
2023/02/08 10:22:53;;;;;;;;;;;17.50;46.70;;;;;;10080366;28;1898;-74
2023/02/08 10:27:48;;;;;;;;;;;17.50;46.70;;;;;;10079872;28;770;-73
2023/02/08 10:32:44;;;;;;;;;;;17.50;46.70;;;;;;10080669;28;872;-73
2023/02/08 10:37:39;;;;;;;;;;;17.50;46.60;;;;;;10080603;28;861;-74
2023/02/08 10:42:34;;;;;;;;;;;17.40;46.60;;;;;;10079265;28;1914;-74
2023/02/08 10:47:30;;;;;;;;;;;17.40;46.60;;;;;;10079813;28;941;-74
2023/02/08 10:52:25;;;;;;;;;;;17.40;46.60;;;;;;10079717;28;839;-74
2023/02/08 10:57:20;;;;;;;;;;;17.40;46.70;;;;;;10080201;28;768;-73
2023/02/08 11:02:16;;;;;;;;;;;17.40;46.90;;;;;;10080095;28;1898;-74
2023/02/08 11:07:11;;;;;;;;;;;17.40;46.90;;;;;;10079919;28;838;-74
2023/02/08 11:12:06;;;;;;;;;;;17.40;47.00;;;;;;10079819;28;928;-74
2023/02/08 11:17:02;;;;;;;;;;;17.40;47.00;;;;;;10078565;28;822;-74
2023/02/08 11:21:58;;;;;;;;;;;17.40;47.00;;;;;;10078942;28;1903;-76
2023/02/08 11:26:55;;;;;;;;;;;17.40;46.90;;;;;;10078822;28;1076;-74
2023/02/08 11:31:50;;;;;;;;;;;17.50;46.90;;;;;;10079321;28;884;-73
2023/02/08 11:36:45;;;;;;;;;;;17.50;46.80;;;;;;10078628;28;875;-73
2023/02/08 11:41:41;;;;;;;;;;;17.50;46.80;;;;;;10081663;28;1899;-73
2023/02/08 11:46:38;;;;;;;;;;;17.50;46.80;;;;;;10084619;28;1083;-73
2023/02/08 11:51:34;;;;;;;;;;;17.50;46.70;;;;;;10085220;28;888;-74
2023/02/08 11:56:29;;;;;;;;;;;17.50;46.90;;;;;;10084867;28;962;-73
2023/02/08 12:01:25;;;;;;;;;;;17.30;47.00;;;;;;10084101;28;1902;-73
2023/02/08 12:06:20;;;;;;;;;;;17.40;46.20;;;;;;10084596;28;825;-73
2023/02/08 12:11:15;;;;;;;;;;;17.50;45.70;;;;;;10084439;28;951;-72
2023/02/08 12:16:11;;;;;;;;;;;17.50;45.60;;;;;;10084341;28;798;-73
2023/02/08 12:21:06;;;;;;;;;;;17.60;45.70;;;;;;10085444;28;940;-73
2023/02/08 12:26:01;;;;;;;;;;;17.60;45.60;;;;;;10083957;28;1906;-73
2023/02/08 12:30:57;;;;;;;;;;;17.60;45.90;;;;;;10083898;28;857;-72
2023/02/08 12:35:52;;;;;;;;;;;17.60;46.00;;;;;;10083762;28;783;-72
2023/02/08 12:40:54;;;;;;;;;;;17.60;46.10;;;;;;10083976;28;1117;-71
2023/02/08 12:45:49;;;;;;;;;;;17.70;46.20;;;;;;10084092;28;1918;-73
2023/02/08 12:50:44;;;;;;;;;;;17.60;46.40;;;;;;10082507;28;892;-73
2023/02/08 12:55:40;;;;;;;;;;;17.70;46.60;;;;;;10083002;28;761;-73
2023/02/08 13:00:35;;;;;;;;;;;17.80;46.50;;;;;;10083747;28;771;-73
2023/02/08 13:05:31;;;;;;;;;;;17.80;46.60;;;;;;10083369;28;1906;-81
2023/02/08 13:10:26;;;;;;;;;;;17.80;46.60;;;;;;10082714;28;825;-74
2023/02/08 13:15:23;;;;;;;;;;;17.60;46.90;;;;;;10082487;28;957;-82
2023/02/08 13:20:18;;;;;;;;;;;17.50;47.10;;;;;;10082892;28;837;-79
2023/02/08 13:25:14;;;;;;;;;;;17.50;47.20;;;;;;10082938;28;1910;-79
2023/02/08 13:30:09;;;;;;;;;;;17.50;47.10;;;;;;10082654;28;916;-78
2023/02/08 13:35:04;;;;;;;;;;;17.60;47.10;;;;;;10082768;28;853;-78
2023/02/08 13:40:00;;;;;;;;;;;17.70;47.10;;;;;;10082375;28;1130;-79
2023/02/08 13:44:55;;;;;;;;;;;17.70;47.10;;;;;;10081639;28;1907;-78
2023/02/08 13:49:51;;;;;;;;;;;17.70;47.00;;;;;;10082014;28;882;-78
2023/02/08 13:54:47;;;;;;;;;;;17.70;47.00;;;;;;10081944;28;865;-78
2023/02/08 13:59:45;;;;;;;;;;;17.70;46.90;;;;;;10081522;28;938;-77
2023/02/08 14:04:40;;;;;;;;;;;17.80;46.90;;;;;;10079687;28;1960;-77
2023/02/08 14:09:36;;;;;;;;;;;17.90;46.90;;;;;;10080873;28;905;-77
2023/02/08 14:14:31;;;;;;;;;;;17.90;46.80;;;;;;10080522;28;766;-77
2023/02/08 14:19:26;;;;;;;;;;;17.90;46.80;;;;;;10080577;28;802;-77
2023/02/08 14:24:22;;;;;;;;;;;17.90;46.90;;;;;;10080052;28;1961;-77
2023/02/08 14:29:17;;;;;;;;;;;17.90;46.90;;;;;;10080654;28;866;-77
2023/02/08 14:34:12;;;;;;;;;;;17.90;47.00;;;;;;10080009;28;906;-78
2023/02/08 14:39:08;;;;;;;;;;;17.80;47.00;;;;;;10079882;28;910;-78
2023/02/08 14:44:03;;;;;;;;;;;17.80;47.00;;;;;;10080455;28;1919;-78
2023/02/08 14:48:58;;;;;;;;;;;17.80;46.90;;;;;;10080132;28;856;-77
2023/02/08 14:53:54;;;;;;;;;;;17.90;47.00;;;;;;10079700;28;859;-77
2023/02/08 14:58:49;;;;;;;;;;;17.90;46.90;;;;;;10079374;28;881;-77
2023/02/08 15:03:45;;;;;;;;;;;18.00;46.80;;;;;;10079968;28;1903;-78
2023/02/08 15:08:40;;;;;;;;;;;18.10;46.80;;;;;;10079617;28;809;-78
2023/02/08 15:13:35;;;;;;;;;;;18.10;46.60;;;;;;10079177;28;953;-79
2023/02/08 15:18:31;;;;;;;;;;;18.20;46.60;;;;;;10085460;28;917;-78
2023/02/08 15:23:26;;;;;;;;;;;18.20;46.50;;;;;;10086323;28;1967;-79
2023/02/08 15:28:21;;;;;;;;;;;18.30;46.50;;;;;;10085518;28;1008;-78
2023/02/08 15:33:17;;;;;;;;;;;18.30;46.40;;;;;;10085384;28;770;-78
2023/02/08 15:38:12;;;;;;;;;;;18.30;46.40;;;;;;10085186;28;1043;-79
2023/02/08 15:43:07;;;;;;;;;;;18.20;46.60;;;;;;10084895;28;1926;-79
2023/02/08 15:48:03;;;;;;;;;;;18.00;46.80;;;;;;10084927;28;978;-79
2023/02/08 15:52:58;;;;;;;;;;;17.90;46.80;;;;;;10085327;28;810;-78
2023/02/08 15:57:54;;;;;;;;;;;17.80;46.90;;;;;;10085575;28;888;-79
2023/02/08 16:02:49;;;;;;;;;;;17.80;47.10;;;;;;10084410;28;1911;-77
2023/02/08 16:07:44;;;;;;;;;;;17.70;47.10;;;;;;10084969;28;819;-79
2023/02/08 16:12:40;;;;;;;;;;;17.60;47.00;;;;;;10085191;28;778;-79
2023/02/08 16:17:35;;;;;;;;;;;17.70;47.00;;;;;;10085054;28;810;-78
2023/02/08 16:22:31;;;;;;;;;;;17.60;47.10;;;;;;10084145;28;1910;-78
2023/02/08 16:27:26;;;;;;;;;;;17.50;47.10;;;;;;10083978;28;794;-79
2023/02/08 16:32:21;;;;;;;;;;;17.50;47.10;;;;;;10083979;28;964;-79
2023/02/08 16:37:17;;;;;;;;;;;17.50;47.10;;;;;;10083766;28;746;-79
2023/02/08 16:42:12;;;;;;;;;;;17.50;47.10;;;;;;10083955;28;1991;-80
2023/02/08 16:47:07;;;;;;;;;;;17.40;47.10;;;;;;10084043;28;860;-73
2023/02/08 16:52:03;;;;;;;;;;;17.40;47.10;;;;;;10082740;28;822;-72
2023/02/08 16:56:59;;;;;;;;;;;17.70;47.50;;;;;;10082571;28;845;-72
2023/02/08 17:01:55;;;;;;;;;;;17.90;47.60;;;;;;10083567;28;1970;-71
2023/02/08 17:06:50;;;;;;;;;;;17.90;47.50;;;;;;10082804;28;918;-74
2023/02/08 17:11:46;;;;;;;;;;;17.90;47.50;;;;;;10082656;28;822;-73
2023/02/08 17:16:42;;;;;;;;;;;17.90;47.50;;;;;;10082526;28;818;-74
2023/02/08 17:21:38;;;;;;;;;;;17.90;47.30;;;;;;10082852;28;1964;-74
2023/02/08 17:26:33;;;;;;;;;;;17.90;47.30;;;;;;10082843;28;852;-74
2023/02/08 17:31:28;;;;;;;;;;;17.80;47.10;;;;;;10081525;28;872;-73
2023/02/08 17:36:24;;;;;;;;;;;17.80;46.90;;;;;;10081895;28;973;-73
2023/02/08 17:41:19;;;;;;;;;;;17.70;47.00;;;;;;10081317;28;1169;-74
2023/02/08 17:46:15;;;;;;;;;;;17.80;46.70;;;;;;10081547;28;1907;-74
2023/02/08 17:51:11;;;;;;;;;;;17.80;46.60;;;;;;10081473;28;781;-73
2023/02/08 17:56:08;;;;;;;;;;;17.80;46.60;;;;;;10081369;28;843;-73
2023/02/08 18:01:03;;;;;;;;;;;17.80;46.70;;;;;;10081139;28;982;-74
2023/02/08 18:05:59;;;;;;;;;;;17.80;46.60;;;;;;10080966;28;1966;-74
2023/02/08 18:10:54;;;;;;;;;;;17.80;46.50;;;;;;10081587;28;1041;-73
2023/02/08 18:15:49;;;;;;;;;;;17.90;46.50;;;;;;10080728;28;923;-74
2023/02/08 18:20:45;;;;;;;;;;;17.80;46.50;;;;;;10080678;28;892;-74
2023/02/08 18:25:41;;;;;;;;;;;17.90;46.40;;;;;;10080453;28;1907;-74
2023/02/08 18:30:36;;;;;;;;;;;17.90;46.40;;;;;;10080314;28;988;-73
2023/02/08 18:35:31;;;;;;;;;;;17.90;46.30;;;;;;10080862;28;872;-73
2023/02/08 18:40:27;;;;;;;;;;;17.90;46.20;;;;;;10079916;28;1225;-74
2023/02/08 18:45:22;;;;;;;;;;;17.90;46.20;;;;;;10079411;28;1907;-74
2023/02/08 18:50:18;;;;;;;;;;;17.90;46.10;;;;;;10078776;28;846;-73
2023/02/08 18:55:13;;;;;;;;;;;17.90;46.10;;;;;;10079151;28;987;-74
2023/02/08 19:00:08;;;;;;;;;;;17.90;46.10;;;;;;10079614;28;793;-74
2023/02/08 19:05:04;;;;;;;;;;;17.90;46.20;;;;;;10079408;28;1899;-73
2023/02/08 19:09:59;;;;;;;;;;;17.90;46.10;;;;;;10079962;28;849;-73
2023/02/08 19:14:54;;;;;;;;;;;17.90;46.00;;;;;;10078669;28;1019;-73
2023/02/08 19:19:50;;;;;;;;;;;17.90;46.60;;;;;;10079142;28;794;-72
2023/02/08 19:24:45;;;;;;;;;;;17.90;45.80;;;;;;10079523;28;1894;-81
2023/02/08 19:29:41;;;;;;;;;;;17.90;45.60;;;;;;10079756;28;920;-80
2023/02/08 19:34:36;;;;;;;;;;;17.80;45.80;;;;;;10078717;28;845;-76
2023/02/08 19:39:31;;;;;;;;;;;17.70;46.40;;;;;;10078115;28;838;-76
2023/02/08 19:44:27;;;;;;;;;;;17.50;46.40;;;;;;10079357;28;1907;-76
2023/02/08 19:49:24;;;;;;;;;;;17.50;46.50;;;;;;10078297;28;862;-77
2023/02/08 19:54:19;;;;;;;;;;;17.40;46.60;;;;;;10078401;28;794;-75
2023/02/08 19:59:15;;;;;;;;;;;17.40;46.60;;;;;;10078761;28;889;-76
2023/02/08 20:04:11;;;;;;;;;;;17.40;46.60;;;;;;10083095;28;1960;-76
2023/02/08 20:09:06;;;;;;;;;;;17.40;46.70;;;;;;10084588;28;890;-76
2023/02/08 20:14:02;;;;;;;;;;;17.40;46.60;;;;;;10084488;28;787;-76
2023/02/08 20:18:57;;;;;;;;;;;17.50;46.70;;;;;;10084390;28;874;-86
2023/02/08 20:23:52;;;;;;;;;;;17.40;46.60;;;;;;10084740;28;1974;-75
2023/02/08 20:28:49;;;;;;;;;;;17.40;46.70;;;;;;10084043;28;1177;-74
2023/02/08 20:33:44;;;;;;;;;;;17.40;46.60;;;;;;10084533;28;766;-74
2023/02/08 20:38:39;;;;;;;;;;;17.40;46.60;;;;;;10084335;28;869;-74
2023/02/08 20:43:35;;;;;;;;;;;17.40;46.60;;;;;;10083364;28;1914;-74
2023/02/08 20:48:30;;;;;;;;;;;17.40;46.50;;;;;;10083483;28;928;-74
2023/02/08 20:53:26;;;;;;;;;;;17.40;46.50;;;;;;10084524;28;881;-74
2023/02/08 20:58:21;;;;;;;;;;;17.40;46.60;;;;;;10082632;28;810;-74
2023/02/08 21:03:16;;;;;;;;;;;17.40;46.60;;;;;;10082907;28;1910;-74
2023/02/08 21:08:12;;;;;;;;;;;17.40;46.70;;;;;;10082842;28;831;-74
2023/02/08 21:13:07;;;;;;;;;;;17.40;46.70;;;;;;10083417;28;965;-74
2023/02/08 21:18:02;;;;;;;;;;;17.40;46.70;;;;;;10082028;28;930;-74
2023/02/08 21:22:58;;;;;;;;;;;17.40;46.70;;;;;;10082347;28;1952;-75
2023/02/08 21:27:53;;;;;;;;;;;17.40;46.60;;;;;;10082236;28;837;-75
2023/02/08 21:32:48;;;;;;;;;;;17.40;46.60;;;;;;10081526;28;855;-75
2023/02/08 21:37:44;;;;;;;;;;;17.40;46.50;;;;;;10082545;28;790;-75
2023/02/08 21:42:39;;;;;;;;;;;17.40;46.70;;;;;;10081887;28;1910;-75
2023/02/08 21:47:35;;;;;;;;;;;17.40;46.60;;;;;;10081641;28;931;-75
2023/02/08 21:57:44;;;;;;;;;;;17.30;46.50;;;;;;10081387;29;613;-75
2023/02/08 22:02:39;;;;;;;;;;;17.30;46.50;;;;;;10081165;28;1977;-75
2023/02/08 22:07:35;;;;;;;;;;;17.30;46.60;;;;;;10082109;28;909;-75
2023/02/08 22:12:30;;;;;;;;;;;17.30;46.60;;;;;;10081559;28;814;-74
2023/02/08 22:17:26;;;;;;;;;;;17.30;46.60;;;;;;10080722;28;917;-76
2023/02/08 22:22:21;;;;;;;;;;;17.30;46.60;;;;;;10081006;28;1970;-75
2023/02/08 22:27:16;;;;;;;;;;;17.30;46.60;;;;;;10079129;28;893;-74
2023/02/08 22:32:15;;;;;;;;;;;17.30;46.50;;;;;;10080952;28;794;-75
2023/02/08 22:37:11;;;;;;;;;;;17.30;46.50;;;;;;10080089;28;906;-75
2023/02/08 22:42:12;;;;;;;;;;;17.30;46.60;;;;;;10080178;28;1906;-74
2023/02/08 22:47:07;;;;;;;;;;;17.30;46.60;;;;;;10079851;28;850;-75
2023/02/08 22:52:04;;;;;;;;;;;17.30;46.50;;;;;;10080108;28;1069;-75
2023/02/08 22:56:59;;;;;;;;;;;17.30;46.50;;;;;;10079732;28;784;-76
2023/02/08 23:01:55;;;;;;;;;;;17.30;46.50;;;;;;10080088;28;1910;-74
2023/02/08 23:06:50;;;;;;;;;;;17.30;46.50;;;;;;10079513;28;763;-75
2023/02/08 23:11:45;;;;;;;;;;;17.30;46.60;;;;;;10080132;28;921;-75
2023/02/08 23:16:41;;;;;;;;;;;17.30;46.50;;;;;;10079833;28;818;-74
2023/02/08 23:21:36;;;;;;;;;;;17.30;46.50;;;;;;10079124;28;908;-75
2023/02/08 23:26:32;;;;;;;;;;;17.30;46.50;;;;;;10078989;28;1948;-75
2023/02/08 23:31:27;;;;;;;;;;;17.30;46.60;;;;;;10078326;28;874;-75
2023/02/08 23:36:22;;;;;;;;;;;17.30;46.50;;;;;;10081489;28;949;-75
2023/02/08 23:41:18;;;;;;;;;;;17.30;46.50;;;;;;10086068;28;1205;-75
2023/02/08 23:46:13;;;;;;;;;;;17.30;46.50;;;;;;10085426;28;1977;-74
2023/02/08 23:51:08;;;;;;;;;;;17.30;46.60;;;;;;10084653;28;947;-76
2023/02/08 23:56:04;;;;;;;;;;;17.30;46.50;;;;;;10086288;28;884;-75
